createdAt,value
2022-11-04T00:02:13.541Z,1.60
2022-11-04T00:04:40.565Z,1.83
2022-11-04T00:07:27.518Z,1.90
2022-11-04T00:09:54.488Z,1.80
2022-11-04T00:12:27.282Z,1.50
2022-11-04T00:14:54.308Z,1.50
2022-11-04T00:17:24.037Z,1.70
2022-11-04T00:20:11.126Z,1.60
2022-11-04T00:22:57.137Z,1.50
2022-11-04T00:25:42.945Z,1.80
2022-11-04T00:28:32.943Z,1.50
2022-11-04T00:31:19.461Z,1.40
2022-11-04T00:33:46.919Z,1.60
2022-11-04T00:36:13.885Z,1.27
2022-11-04T00:38:40.918Z,1.50
2022-11-04T00:41:25.837Z,1.57
2022-11-04T00:43:59.990Z,1.70
2022-11-04T00:46:27.630Z,1.70
2022-11-04T00:48:54.752Z,1.70
2022-11-04T00:51:22.354Z,1.50
2022-11-04T00:53:49.706Z,1.50
2022-11-04T00:56:16.798Z,1.67
2022-11-04T00:58:43.802Z,1.67
2022-11-04T01:01:12.158Z,1.40
2022-11-04T01:03:39.523Z,1.60
2022-11-04T01:06:06.677Z,1.63
2022-11-04T01:08:34.477Z,1.67
2022-11-04T01:11:08.184Z,1.63
2022-11-04T01:13:35.277Z,1.70
2022-11-04T01:16:03.138Z,1.60
2022-11-04T01:18:30.145Z,1.70
2022-11-04T01:21:01.457Z,1.67
2022-11-04T01:23:28.905Z,1.77
2022-11-04T01:25:55.907Z,1.60
2022-11-04T01:28:22.901Z,1.73
2022-11-04T01:30:49.885Z,1.77
2022-11-04T01:33:16.883Z,1.80
2022-11-04T01:35:43.886Z,1.60
2022-11-04T01:38:11.473Z,1.80
2022-11-04T01:40:39.874Z,1.60
2022-11-04T01:43:18.740Z,1.50
2022-11-04T01:45:47.533Z,1.50
2022-11-04T01:48:26.668Z,1.67
2022-11-04T01:50:54.371Z,1.73
2022-11-04T01:53:29.398Z,1.60
2022-11-04T01:55:57.321Z,1.50
2022-11-04T01:58:26.484Z,1.60
2022-11-04T02:00:53.537Z,1.70
2022-11-04T02:03:25.753Z,1.30
2022-11-04T02:05:53.213Z,1.60
2022-11-04T02:08:21.188Z,1.70
2022-11-04T02:10:51.200Z,1.33
2022-11-04T02:13:18.485Z,1.40
2022-11-04T02:15:54.676Z,1.63
2022-11-04T02:18:33.800Z,1.40
2022-11-04T02:21:12.761Z,1.37
2022-11-04T02:23:58.307Z,1.17
2022-11-04T02:26:31.470Z,1.30
2022-11-04T02:29:17.312Z,1.20
2022-11-04T02:31:52.591Z,1.33
2022-11-04T02:34:22.304Z,1.27
2022-11-04T02:37:12.157Z,1.63
2022-11-04T02:39:47.231Z,1.40
2022-11-04T02:42:31.793Z,1.23
2022-11-04T02:45:02.786Z,1.50
2022-11-04T02:47:31.314Z,1.53
2022-11-04T02:50:13.009Z,1.30
2022-11-04T02:52:47.066Z,1.27
2022-11-04T02:55:18.843Z,1.20
2022-11-04T02:57:47.428Z,1.60
2022-11-04T03:00:15.020Z,1.30
2022-11-04T03:02:43.944Z,1.23
2022-11-04T03:05:13.473Z,1.33
2022-11-04T03:07:42.065Z,1.73
2022-11-04T03:10:13.663Z,1.30
2022-11-04T03:12:45.063Z,1.30
2022-11-04T03:15:15.480Z,1.00
2022-11-04T03:17:56.433Z,1.40
2022-11-04T03:20:27.186Z,1.40
2022-11-04T03:22:59.535Z,1.47
2022-11-04T03:25:28.830Z,1.30
2022-11-04T03:28:16.098Z,1.47
2022-11-04T03:30:44.420Z,1.20
2022-11-04T03:33:11.793Z,1.23
2022-11-04T03:35:39.060Z,1.27
2022-11-04T03:38:06.107Z,1.30
2022-11-04T03:40:33.121Z,1.33
2022-11-04T03:43:01.978Z,1.50
2022-11-04T03:45:29.023Z,1.50
2022-11-04T03:47:56.961Z,1.30
2022-11-04T03:50:26.693Z,1.90
2022-11-04T03:52:53.846Z,1.40
2022-11-04T03:55:21.584Z,1.63
2022-11-04T03:57:54.620Z,1.60
2022-11-04T04:00:22.827Z,1.37
2022-11-04T04:03:07.780Z,1.30
2022-11-04T04:05:46.042Z,1.33
2022-11-04T04:08:33.283Z,1.10
2022-11-04T04:11:03.371Z,1.40
2022-11-04T04:13:43.130Z,1.60
2022-11-04T04:16:24.780Z,1.50
2022-11-04T04:18:58.534Z,1.40
2022-11-04T04:21:36.425Z,1.50
2022-11-04T04:24:25.090Z,1.60
2022-11-04T04:27:11.949Z,1.85
2022-11-04T04:29:39.150Z,1.50
2022-11-04T04:32:06.365Z,1.50
2022-11-04T04:34:33.880Z,1.87
2022-11-04T04:37:03.100Z,1.70
2022-11-04T04:39:51.900Z,1.30
2022-11-04T04:42:37.819Z,1.23
2022-11-04T04:45:06.275Z,1.33
2022-11-04T04:47:38.677Z,1.53
2022-11-04T04:50:06.318Z,1.90
2022-11-04T04:52:40.465Z,1.50
2022-11-04T04:55:08.386Z,1.60
2022-11-04T04:57:35.404Z,1.50
2022-11-04T05:00:02.472Z,1.60
2022-11-04T05:02:29.524Z,1.50
2022-11-04T05:04:56.650Z,1.90
2022-11-04T05:07:23.640Z,1.70
2022-11-04T05:09:50.607Z,1.50
2022-11-04T05:12:17.925Z,1.60
2022-11-04T05:14:44.941Z,1.40
2022-11-04T05:17:12.040Z,1.37
2022-11-04T05:19:39.878Z,1.43
2022-11-04T05:22:06.840Z,1.73
2022-11-04T05:24:33.849Z,1.70
2022-11-04T05:27:00.854Z,1.50
2022-11-04T05:29:27.813Z,1.67
2022-11-04T05:31:54.785Z,1.70
2022-11-04T05:34:21.741Z,1.43
2022-11-04T05:36:48.711Z,1.70
2022-11-04T05:39:15.715Z,1.90
2022-11-04T05:41:42.808Z,1.98
2022-11-04T05:44:11.062Z,1.80
2022-11-04T05:46:38.168Z,2.47
2022-11-04T05:49:05.484Z,2.00
2022-11-04T05:51:32.748Z,1.90
2022-11-04T05:53:59.928Z,2.03
2022-11-04T05:56:26.884Z,1.67
2022-11-04T05:59:05.442Z,1.80
2022-11-04T06:01:36.685Z,1.67
2022-11-04T06:04:04.391Z,1.73
2022-11-04T06:06:33.228Z,1.67
2022-11-04T06:09:00.448Z,1.87
2022-11-04T06:11:28.518Z,1.90
2022-11-04T06:13:56.517Z,1.80
2022-11-04T06:16:24.148Z,1.77
2022-11-04T06:18:51.358Z,1.80
2022-11-04T06:21:19.991Z,1.73
2022-11-04T06:23:46.970Z,1.70
2022-11-04T06:26:14.040Z,1.50
2022-11-04T06:28:41.110Z,1.90
2022-11-04T06:31:09.129Z,1.70
2022-11-04T06:33:37.164Z,1.90
2022-11-04T06:36:05.642Z,2.10
2022-11-04T06:38:33.380Z,2.00
2022-11-04T06:41:00.708Z,2.20
2022-11-04T06:43:27.805Z,2.10
2022-11-04T06:45:55.454Z,2.10
2022-11-04T06:48:22.425Z,2.20
2022-11-04T06:50:49.557Z,2.20
2022-11-04T06:53:16.618Z,2.00
2022-11-04T06:55:43.925Z,2.33
2022-11-04T06:58:10.937Z,2.40
2022-11-04T07:00:38.044Z,1.70
2022-11-04T07:03:05.109Z,1.50
2022-11-04T07:05:35.233Z,1.80
2022-11-04T07:08:02.326Z,1.80
2022-11-04T07:10:29.297Z,1.60
2022-11-04T07:12:56.646Z,1.90
2022-11-04T07:15:27.421Z,2.10
2022-11-04T07:17:54.699Z,2.10
2022-11-04T07:20:21.709Z,1.60
2022-11-04T07:22:48.717Z,1.67
2022-11-04T07:25:15.749Z,1.80
2022-11-04T07:27:42.717Z,2.30
2022-11-04T07:30:09.958Z,2.30
2022-11-04T07:32:36.937Z,2.10
2022-11-04T07:35:04.506Z,2.00
2022-11-04T07:37:31.985Z,2.40
2022-11-04T07:39:58.998Z,2.63
2022-11-04T07:42:25.954Z,2.17
2022-11-04T07:44:52.924Z,2.20
2022-11-04T07:47:19.897Z,1.83
2022-11-04T07:49:46.929Z,2.20
2022-11-04T07:52:13.977Z,2.20
2022-11-04T07:54:40.937Z,2.40
2022-11-04T07:57:08.390Z,2.30
2022-11-04T07:59:35.397Z,2.17
2022-11-04T08:02:02.552Z,2.10
2022-11-04T08:04:29.590Z,2.10
2022-11-04T08:06:56.585Z,1.80
2022-11-04T08:09:23.757Z,2.30
2022-11-04T08:11:50.835Z,1.63
2022-11-04T08:14:17.793Z,2.70
2022-11-04T08:16:44.922Z,2.60
2022-11-04T08:19:11.974Z,1.80
2022-11-04T08:21:39.078Z,1.70
2022-11-04T08:24:06.318Z,1.93
2022-11-04T08:26:33.305Z,1.83
2022-11-04T08:29:02.289Z,2.10
2022-11-04T08:31:30.341Z,2.03
2022-11-04T08:33:57.664Z,2.40
2022-11-04T08:36:26.238Z,2.47
2022-11-04T08:38:53.641Z,1.97
2022-11-04T08:41:22.387Z,1.73
2022-11-04T08:43:49.415Z,1.63
2022-11-04T08:46:16.802Z,1.30
2022-11-04T08:48:44.139Z,1.40
2022-11-04T08:51:16.089Z,2.70
2022-11-04T08:53:43.301Z,1.47
2022-11-04T08:56:11.516Z,1.70
2022-11-04T08:58:38.655Z,1.50
2022-11-04T09:01:05.985Z,1.70
2022-11-04T09:03:34.749Z,1.63
2022-11-04T09:06:01.907Z,1.70
2022-11-04T09:08:28.890Z,1.70
2022-11-04T09:10:55.919Z,1.70
2022-11-04T09:13:22.953Z,2.00
2022-11-04T09:15:50.246Z,1.57
2022-11-04T09:18:17.284Z,1.90
2022-11-04T09:20:44.799Z,1.60
2022-11-04T09:23:12.105Z,1.60
2022-11-04T09:25:39.368Z,2.00
2022-11-04T09:28:06.750Z,1.90
2022-11-04T09:30:33.928Z,2.05
2022-11-04T09:33:00.943Z,1.80
2022-11-04T09:35:27.989Z,1.40
2022-11-04T09:37:54.997Z,1.87
2022-11-04T09:40:23.876Z,1.27
2022-11-04T09:43:06.286Z,1.93
2022-11-04T09:45:33.790Z,1.70
2022-11-04T09:48:14.786Z,2.03
2022-11-04T09:50:45.894Z,1.87
2022-11-04T09:53:17.838Z,1.50
2022-11-04T09:55:48.913Z,2.40
2022-11-04T09:58:16.068Z,2.40
2022-11-04T10:00:46.856Z,4.20
2022-11-04T10:03:22.074Z,5.67
2022-11-04T10:06:05.559Z,3.47
2022-11-04T10:08:54.878Z,2.53
2022-11-04T10:11:32.289Z,2.20
2022-11-04T10:14:14.377Z,2.20
2022-11-04T10:16:41.327Z,1.80
2022-11-04T10:19:08.266Z,1.60
2022-11-04T10:22:04.752Z,1.83
2022-11-04T10:24:43.788Z,1.90
2022-11-04T10:27:17.230Z,1.80
2022-11-04T10:29:45.846Z,1.40
2022-11-04T10:32:22.241Z,1.60
2022-11-04T10:35:01.472Z,1.70
2022-11-04T10:37:28.905Z,1.27
2022-11-04T10:40:07.199Z,1.40
2022-11-04T10:42:34.271Z,1.50
2022-11-04T10:45:01.987Z,1.50
2022-11-04T10:47:48.304Z,1.73
2022-11-04T10:50:31.871Z,1.70
2022-11-04T10:53:16.000Z,1.70
2022-11-04T10:55:55.079Z,2.00
2022-11-04T10:58:24.402Z,1.90
2022-11-04T11:00:51.908Z,1.63
2022-11-04T11:03:39.251Z,1.90
2022-11-04T11:06:14.633Z,1.87
2022-11-04T11:08:42.588Z,1.73
2022-11-04T11:11:10.636Z,1.47
2022-11-04T11:13:39.307Z,1.80
2022-11-04T11:16:11.958Z,1.57
2022-11-04T11:18:39.589Z,2.17
2022-11-04T11:21:08.785Z,2.15
2022-11-04T11:23:37.522Z,2.10
2022-11-04T11:26:07.107Z,2.43
2022-11-04T11:28:38.030Z,1.60
2022-11-04T11:31:23.451Z,1.80
2022-11-04T11:33:53.028Z,1.73
2022-11-04T11:36:22.003Z,1.50
2022-11-04T11:39:01.444Z,1.80
2022-11-04T11:41:31.289Z,1.63
2022-11-04T11:44:21.407Z,1.47
2022-11-04T11:46:54.429Z,2.00
2022-11-04T11:49:27.778Z,2.10
2022-11-04T11:51:55.720Z,1.80
2022-11-04T11:54:37.590Z,3.00
2022-11-04T11:57:14.651Z,2.00
2022-11-04T12:02:46.358Z,1.80
2022-11-04T12:11:16.577Z,1.87
2022-11-04T12:13:46.453Z,1.53
2022-11-04T12:16:33.697Z,2.47
2022-11-04T12:19:14.954Z,1.90
2022-11-04T12:21:46.315Z,2.30
2022-11-04T12:24:31.677Z,2.07
2022-11-04T12:27:07.720Z,1.87
2022-11-04T12:29:52.760Z,1.70
2022-11-04T12:32:19.786Z,1.93
2022-11-04T12:35:05.460Z,2.40
2022-11-04T12:37:52.114Z,1.80
2022-11-04T12:40:19.086Z,1.67
2022-11-04T12:43:00.230Z,1.70
2022-11-04T12:45:33.315Z,1.73
2022-11-04T12:48:03.516Z,1.77
2022-11-04T12:50:33.474Z,2.10
2022-11-04T12:53:09.811Z,2.10
2022-11-04T12:55:44.747Z,1.30
2022-11-04T12:58:23.777Z,1.80
2022-11-04T13:00:59.086Z,1.83
2022-11-04T13:03:30.093Z,2.03
2022-11-04T13:06:17.383Z,1.97
2022-11-04T13:09:02.598Z,1.77
2022-11-04T13:11:37.090Z,1.90
2022-11-04T13:14:11.564Z,1.50
2022-11-04T13:16:43.166Z,1.90
2022-11-04T13:19:29.108Z,1.97
2022-11-04T13:21:56.824Z,1.63
2022-11-04T13:24:30.294Z,1.93
2022-11-04T13:26:58.985Z,2.17
2022-11-04T13:29:26.315Z,1.70
2022-11-04T13:31:54.165Z,1.93
2022-11-04T13:34:40.120Z,2.33
2022-11-04T13:37:12.446Z,2.27
2022-11-04T13:39:46.382Z,2.20
2022-11-04T13:42:24.254Z,2.00
2022-11-04T13:44:53.126Z,2.30
2022-11-04T13:47:30.089Z,1.90
2022-11-04T13:49:57.122Z,2.03
2022-11-04T13:52:33.721Z,1.70
2022-11-04T13:55:02.719Z,1.70
2022-11-04T13:57:43.453Z,2.37
2022-11-04T14:00:13.529Z,1.67
2022-11-04T14:02:41.757Z,1.27
2022-11-04T14:05:27.454Z,1.57
2022-11-04T14:08:03.444Z,1.60
2022-11-04T14:10:39.792Z,2.13
2022-11-04T14:13:25.460Z,1.80
2022-11-04T14:16:03.622Z,1.63
2022-11-04T14:18:31.775Z,1.40
2022-11-04T14:21:03.446Z,1.30
2022-11-04T14:23:30.420Z,1.50
2022-11-04T14:26:02.207Z,1.43
2022-11-04T14:28:30.370Z,1.50
2022-11-04T14:31:12.532Z,1.80
2022-11-04T14:33:53.819Z,1.40
2022-11-04T14:36:20.985Z,1.27
2022-11-04T14:39:03.084Z,2.13
2022-11-04T14:41:30.020Z,1.77
2022-11-04T14:43:59.347Z,1.50
2022-11-04T14:46:28.460Z,1.47
2022-11-04T14:48:57.677Z,1.70
2022-11-04T14:51:40.003Z,1.73
2022-11-04T14:54:08.770Z,1.50
2022-11-04T14:56:35.782Z,1.07
2022-11-04T14:59:05.375Z,1.33
2022-11-04T15:01:37.198Z,1.10
2022-11-04T15:04:12.096Z,1.00
2022-11-04T15:06:54.055Z,2.20
2022-11-04T15:09:32.434Z,1.70
2022-11-04T15:12:32.145Z,3.60
2022-11-04T15:14:59.884Z,2.00
2022-11-04T15:17:30.354Z,1.50
2022-11-04T15:19:59.460Z,1.30
2022-11-04T15:22:27.626Z,1.30
2022-11-04T15:24:54.937Z,1.70
2022-11-04T15:27:26.274Z,1.80
2022-11-04T15:29:54.274Z,1.53
2022-11-04T15:32:21.275Z,1.80
2022-11-04T15:34:48.427Z,2.17
2022-11-04T15:37:17.106Z,1.83
2022-11-04T15:39:45.617Z,1.50
2022-11-04T15:42:36.241Z,1.90
2022-11-04T15:45:19.126Z,2.10
2022-11-04T15:47:46.124Z,2.10
2022-11-04T15:50:22.394Z,1.80
2022-11-04T15:52:52.436Z,1.83
2022-11-04T15:55:21.707Z,1.80
2022-11-04T15:57:49.885Z,2.00
2022-11-04T16:00:17.431Z,2.50
2022-11-04T16:02:49.713Z,2.27
2022-11-04T16:05:16.711Z,2.80
2022-11-04T16:07:44.630Z,4.43
2022-11-04T16:10:30.531Z,1.90
2022-11-04T16:13:03.643Z,1.83
2022-11-04T16:15:50.876Z,2.40
2022-11-04T16:18:31.930Z,1.90
2022-11-04T16:21:06.184Z,2.20
2022-11-04T16:23:34.576Z,2.30
2022-11-04T16:26:05.642Z,2.30
2022-11-04T16:28:36.576Z,2.60
2022-11-04T16:31:05.146Z,2.60
2022-11-04T16:33:32.190Z,2.70
2022-11-04T16:35:59.152Z,2.33
2022-11-04T16:38:26.573Z,2.30
2022-11-04T16:40:53.582Z,2.40
2022-11-04T16:43:21.501Z,2.63
2022-11-04T16:45:53.566Z,2.40
2022-11-04T16:48:22.385Z,2.40
2022-11-04T16:50:49.365Z,3.10
2022-11-04T16:53:16.569Z,3.50
2022-11-04T16:55:44.497Z,3.23
2022-11-04T16:58:15.617Z,3.30
2022-11-04T17:00:42.713Z,3.10
2022-11-04T17:03:21.350Z,2.80
2022-11-04T17:05:53.777Z,4.70
2022-11-04T17:08:20.757Z,4.53
2022-11-04T17:10:47.750Z,4.03
2022-11-04T17:13:14.751Z,3.90
2022-11-04T17:15:41.958Z,3.60
2022-11-04T17:18:10.434Z,4.57
2022-11-04T17:20:37.456Z,4.40
2022-11-04T17:23:04.495Z,5.63
2022-11-04T17:25:31.576Z,4.20
2022-11-04T17:27:58.593Z,4.80
2022-11-04T17:30:25.744Z,3.67
2022-11-04T17:32:52.783Z,4.00
2022-11-04T17:35:19.921Z,4.00
2022-11-04T17:37:51.276Z,4.00
2022-11-04T17:40:18.645Z,5.47
2022-11-04T17:43:10.371Z,5.40
2022-11-04T17:45:38.981Z,4.67
2022-11-04T17:48:06.384Z,4.80
2022-11-04T17:50:33.489Z,4.73
2022-11-04T17:53:00.459Z,4.40
2022-11-04T17:55:27.954Z,4.37
2022-11-04T17:57:55.419Z,6.13
2022-11-04T18:00:25.754Z,6.23
2022-11-04T18:02:52.909Z,5.17
2022-11-04T18:05:20.276Z,4.80
2022-11-04T18:07:47.246Z,5.17
2022-11-04T18:10:14.264Z,4.77
2022-11-04T18:12:41.516Z,5.20
2022-11-04T18:15:10.281Z,5.65
2022-11-04T18:17:38.142Z,5.20
2022-11-04T18:20:10.709Z,4.90
2022-11-04T18:22:40.237Z,6.23
2022-11-04T18:25:07.583Z,5.70
2022-11-04T18:27:34.825Z,5.83
2022-11-04T18:30:01.846Z,6.57
2022-11-04T18:32:28.866Z,5.40
2022-11-04T18:34:55.842Z,5.00
2022-11-04T18:37:23.810Z,7.23
2022-11-04T18:39:50.842Z,6.90
2022-11-04T18:42:17.813Z,9.60
2022-11-04T18:44:44.787Z,17.60
2022-11-04T18:47:11.771Z,5.10
2022-11-04T18:49:39.025Z,4.67
2022-11-04T18:52:06.113Z,4.00
2022-11-04T18:54:33.271Z,4.17
2022-11-04T18:57:00.241Z,4.20
2022-11-04T18:59:27.259Z,4.13
2022-11-04T19:01:54.408Z,4.13
2022-11-04T19:04:21.556Z,3.90
2022-11-04T19:06:48.573Z,4.80
2022-11-04T19:09:45.338Z,4.10
2022-11-04T19:12:22.725Z,11.27
2022-11-04T19:14:49.807Z,4.50
2022-11-04T19:17:16.837Z,3.90
2022-11-04T19:19:43.865Z,5.10
2022-11-04T19:22:11.660Z,3.80
2022-11-04T19:24:39.308Z,4.40
2022-11-04T19:27:06.386Z,6.17
2022-11-04T19:29:33.376Z,5.37
2022-11-04T19:32:01.844Z,11.97
2022-11-04T19:34:29.037Z,14.20
2022-11-04T19:36:56.037Z,12.17
2022-11-04T19:39:23.027Z,6.60
2022-11-04T19:42:08.903Z,8.90
2022-11-04T19:44:35.884Z,8.33
2022-11-04T19:47:02.904Z,7.33
2022-11-04T19:49:31.440Z,6.73
2022-11-04T19:51:58.910Z,6.97
2022-11-04T19:54:26.004Z,7.27
2022-11-04T19:56:53.164Z,6.60
2022-11-04T19:59:20.241Z,6.63
2022-11-04T20:01:47.400Z,6.30
2022-11-04T20:04:14.565Z,5.77
2022-11-04T20:06:41.549Z,6.17
2022-11-04T20:09:10.837Z,5.97
2022-11-04T20:11:57.685Z,6.87
2022-11-04T20:14:25.288Z,6.70
2022-11-04T20:16:52.605Z,6.57
2022-11-04T20:19:22.934Z,6.50
2022-11-04T20:21:50.472Z,6.70
2022-11-04T20:24:17.467Z,7.53
2022-11-04T20:26:46.610Z,7.30
2022-11-04T20:29:15.798Z,7.40
2022-11-04T20:31:43.299Z,8.63
2022-11-04T20:34:11.364Z,8.07
2022-11-04T20:36:39.043Z,9.33
2022-11-04T20:39:07.606Z,10.40
2022-11-04T20:41:34.633Z,10.03
2022-11-04T20:44:02.644Z,10.10
2022-11-04T20:46:30.821Z,10.60
2022-11-04T20:48:59.146Z,11.13
2022-11-04T20:51:28.585Z,10.93
2022-11-04T20:53:56.214Z,14.20
2022-11-04T20:56:27.775Z,12.07
2022-11-04T20:58:59.039Z,12.23
2022-11-04T21:01:28.197Z,12.13
2022-11-04T21:04:03.310Z,12.80
2022-11-04T21:06:30.534Z,12.63
2022-11-04T21:08:58.269Z,11.80
2022-11-04T21:11:31.730Z,10.97
2022-11-04T21:13:58.974Z,12.63
2022-11-04T21:16:26.229Z,13.23
2022-11-04T21:18:53.999Z,14.23
2022-11-04T21:21:21.084Z,12.43
2022-11-04T21:23:48.604Z,10.87
2022-11-04T21:26:18.336Z,10.30
2022-11-04T21:28:45.416Z,9.37
2022-11-04T21:31:12.560Z,9.77
2022-11-04T21:33:39.701Z,10.37
2022-11-04T21:36:08.256Z,9.43
2022-11-04T21:38:35.727Z,8.43
2022-11-04T21:41:02.730Z,10.00
2022-11-04T21:43:29.913Z,9.63
2022-11-04T21:46:04.002Z,7.23
2022-11-04T21:48:32.262Z,6.43
2022-11-04T21:51:03.295Z,6.33
2022-11-04T21:53:30.669Z,6.50
2022-11-04T21:56:05.299Z,6.20
2022-11-04T21:58:32.600Z,6.00
2022-11-04T22:00:59.747Z,5.67
2022-11-04T22:03:26.747Z,5.37
2022-11-04T22:06:09.262Z,4.50
2022-11-04T22:08:36.985Z,5.00
2022-11-04T22:11:12.089Z,5.25
2022-11-04T22:13:39.103Z,5.10
2022-11-04T22:16:12.237Z,4.90
2022-11-04T22:18:39.249Z,4.87
2022-11-04T22:21:07.525Z,4.50
2022-11-04T22:23:35.386Z,4.30
2022-11-04T22:26:02.848Z,4.67
2022-11-04T22:28:30.117Z,4.53
2022-11-04T22:30:57.191Z,5.13
2022-11-04T22:33:28.808Z,5.17
2022-11-04T22:35:58.421Z,5.37
2022-11-04T22:38:25.398Z,5.00
2022-11-04T22:40:57.149Z,5.77
2022-11-04T22:43:24.938Z,5.83
2022-11-04T22:45:52.748Z,5.63
2022-11-04T22:48:19.834Z,4.27
2022-11-04T22:50:47.149Z,5.13
2022-11-04T22:53:14.952Z,4.37
2022-11-04T22:55:41.943Z,4.30
2022-11-04T22:58:08.909Z,4.23
2022-11-04T23:00:36.916Z,4.53
2022-11-04T23:03:04.052Z,4.73
2022-11-04T23:05:34.164Z,4.80
2022-11-04T23:08:01.821Z,4.50
2022-11-04T23:10:47.750Z,4.80
2022-11-04T23:13:33.607Z,4.80
2022-11-04T23:16:19.635Z,4.47
2022-11-04T23:18:49.693Z,4.60
2022-11-04T23:21:37.545Z,3.90
2022-11-04T23:24:23.653Z,4.47
2022-11-04T23:26:50.793Z,4.82
2022-11-04T23:29:36.518Z,4.77
2022-11-04T23:32:04.043Z,4.63
2022-11-04T23:34:49.849Z,4.60
2022-11-04T23:37:16.849Z,4.50
2022-11-04T23:39:45.282Z,4.40
2022-11-04T23:42:17.246Z,4.67
2022-11-04T23:45:04.053Z,4.70
2022-11-04T23:47:50.603Z,4.80
2022-11-04T23:50:36.567Z,4.70
2022-11-04T23:53:23.221Z,4.63
2022-11-04T23:56:09.701Z,4.97
2022-11-04T23:58:55.441Z,4.43
